sensor_id;sensor_type;location;lat;lon;timestamp;pressure;altitude;pressure_sealevel;temperature;humidity
15750;BME280;7976;52.526;13.326;2023-07-20T00:01:51;100583.69;;;18.45;86.02
15750;BME280;7976;52.526;13.326;2023-07-20T00:04:18;100588.78;;;18.48;85.98
15750;BME280;7976;52.526;13.326;2023-07-20T00:06:45;100583.47;;;18.48;85.48
15750;BME280;7976;52.526;13.326;2023-07-20T00:09:12;100580.72;;;18.50;85.74
15750;BME280;7976;52.526;13.326;2023-07-20T00:11:47;100591.56;;;18.47;85.66
15750;BME280;7976;52.526;13.326;2023-07-20T00:14:14;100589.84;;;18.46;85.68
15750;BME280;7976;52.526;13.326;2023-07-20T00:16:41;100588.03;;;18.46;85.85
15750;BME280;7976;52.526;13.326;2023-07-20T00:19:08;100585.41;;;18.46;86.33
15750;BME280;7976;52.526;13.326;2023-07-20T00:21:36;100591.31;;;18.50;85.77
15750;BME280;7976;52.526;13.326;2023-07-20T00:24:03;100600.22;;;18.49;85.96
15750;BME280;7976;52.526;13.326;2023-07-20T00:26:30;100593.78;;;18.40;86.21
15750;BME280;7976;52.526;13.326;2023-07-20T00:28:58;100588.03;;;18.34;86.70
15750;BME280;7976;52.526;13.326;2023-07-20T00:31:25;100601.50;;;18.31;86.92
15750;BME280;7976;52.526;13.326;2023-07-20T00:33:52;100593.44;;;18.32;87.04
15750;BME280;7976;52.526;13.326;2023-07-20T00:36:19;100601.41;;;18.32;86.85
15750;BME280;7976;52.526;13.326;2023-07-20T00:38:46;100602.38;;;18.31;86.63
15750;BME280;7976;52.526;13.326;2023-07-20T00:41:13;100600.88;;;18.27;86.85
15750;BME280;7976;52.526;13.326;2023-07-20T00:43:40;100600.13;;;18.25;87.30
15750;BME280;7976;52.526;13.326;2023-07-20T00:46:09;100604.81;;;18.22;87.29
15750;BME280;7976;52.526;13.326;2023-07-20T00:48:36;100601.44;;;18.20;87.39
15750;BME280;7976;52.526;13.326;2023-07-20T00:51:03;100602.38;;;18.19;87.36
15750;BME280;7976;52.526;13.326;2023-07-20T00:53:30;100597.19;;;18.17;87.40
15750;BME280;7976;52.526;13.326;2023-07-20T00:55:58;100594.66;;;18.16;87.30
15750;BME280;7976;52.526;13.326;2023-07-20T00:58:25;100592.66;;;18.07;87.57
15750;BME280;7976;52.526;13.326;2023-07-20T01:00:53;100594.34;;;17.95;87.42
15750;BME280;7976;52.526;13.326;2023-07-20T01:03:21;100599.00;;;17.92;88.01
15750;BME280;7976;52.526;13.326;2023-07-20T01:05:54;100604.31;;;17.92;88.26
15750;BME280;7976;52.526;13.326;2023-07-20T01:08:38;100603.47;;;17.91;88.25
15750;BME280;7976;52.526;13.326;2023-07-20T01:11:13;100589.50;;;17.89;88.12
15750;BME280;7976;52.526;13.326;2023-07-20T01:13:44;100604.63;;;17.87;88.16
15750;BME280;7976;52.526;13.326;2023-07-20T01:16:11;100600.41;;;17.85;88.03
15750;BME280;7976;52.526;13.326;2023-07-20T01:18:39;100603.25;;;17.82;88.04
15750;BME280;7976;52.526;13.326;2023-07-20T01:21:13;100604.66;;;17.75;88.08
15750;BME280;7976;52.526;13.326;2023-07-20T01:24:22;100598.94;;;17.68;88.09
15750;BME280;7976;52.526;13.326;2023-07-20T01:27:47;100596.69;;;17.62;88.52
15750;BME280;7976;52.526;13.326;2023-07-20T01:30:46;100593.81;;;17.65;88.74
15750;BME280;7976;52.526;13.326;2023-07-20T01:33:20;100600.81;;;17.66;88.25
15750;BME280;7976;52.526;13.326;2023-07-20T01:35:53;100598.06;;;17.68;88.86
15750;BME280;7976;52.526;13.326;2023-07-20T01:38:22;100597.31;;;17.66;88.65
15750;BME280;7976;52.526;13.326;2023-07-20T01:40:50;100597.53;;;17.63;88.63
15750;BME280;7976;52.526;13.326;2023-07-20T01:43:18;100601.75;;;17.65;88.91
15750;BME280;7976;52.526;13.326;2023-07-20T01:45:45;100600.72;;;17.68;88.88
15750;BME280;7976;52.526;13.326;2023-07-20T01:48:13;100604.81;;;17.72;88.67
15750;BME280;7976;52.526;13.326;2023-07-20T01:50:43;100602.19;;;17.72;88.88
15750;BME280;7976;52.526;13.326;2023-07-20T01:53:09;100596.88;;;17.72;88.71
15750;BME280;7976;52.526;13.326;2023-07-20T01:55:37;100595.09;;;17.72;88.82
15750;BME280;7976;52.526;13.326;2023-07-20T01:58:04;100591.19;;;17.78;88.42
15750;BME280;7976;52.526;13.326;2023-07-20T02:00:31;100598.16;;;17.79;88.26
15750;BME280;7976;52.526;13.326;2023-07-20T02:02:58;100600.28;;;17.74;88.02
15750;BME280;7976;52.526;13.326;2023-07-20T02:05:25;100603.25;;;17.69;88.15
15750;BME280;7976;52.526;13.326;2023-07-20T02:07:53;100596.16;;;17.70;88.23
15750;BME280;7976;52.526;13.326;2023-07-20T02:10:21;100598.81;;;17.70;88.19
15750;BME280;7976;52.526;13.326;2023-07-20T02:12:48;100603.03;;;17.72;88.12
15750;BME280;7976;52.526;13.326;2023-07-20T02:15:15;100601.03;;;17.76;87.95
15750;BME280;7976;52.526;13.326;2023-07-20T02:17:44;100596.88;;;17.72;87.56
15750;BME280;7976;52.526;13.326;2023-07-20T02:20:11;100600.81;;;17.66;87.62
15750;BME280;7976;52.526;13.326;2023-07-20T02:22:39;100602.63;;;17.66;87.79
15750;BME280;7976;52.526;13.326;2023-07-20T02:25:08;100601.47;;;17.70;88.04
15750;BME280;7976;52.526;13.326;2023-07-20T02:27:36;100605.56;;;17.74;87.86
15750;BME280;7976;52.526;13.326;2023-07-20T02:30:06;100599.53;;;17.72;87.63
15750;BME280;7976;52.526;13.326;2023-07-20T02:32:33;100597.97;;;17.69;87.51
15750;BME280;7976;52.526;13.326;2023-07-20T02:35:00;100603.38;;;17.68;87.66
15750;BME280;7976;52.526;13.326;2023-07-20T02:37:29;100598.81;;;17.70;88.01
15750;BME280;7976;52.526;13.326;2023-07-20T02:39:56;100589.91;;;17.71;87.82
15750;BME280;7976;52.526;13.326;2023-07-20T02:42:25;100596.47;;;17.65;87.38
15750;BME280;7976;52.526;13.326;2023-07-20T02:44:53;100600.19;;;17.63;87.51
15750;BME280;7976;52.526;13.326;2023-07-20T02:47:20;100609.38;;;17.57;87.83
15750;BME280;7976;52.526;13.326;2023-07-20T02:49:47;100607.91;;;17.53;87.95
15750;BME280;7976;52.526;13.326;2023-07-20T02:52:14;100607.91;;;17.53;87.79
15750;BME280;7976;52.526;13.326;2023-07-20T02:54:41;100617.44;;;17.56;87.74
15750;BME280;7976;52.526;13.326;2023-07-20T02:57:08;100624.41;;;17.57;87.70
15750;BME280;7976;52.526;13.326;2023-07-20T02:59:36;100622.72;;;17.56;87.39
15750;BME280;7976;52.526;13.326;2023-07-20T03:02:03;100626.13;;;17.58;87.44
15750;BME280;7976;52.526;13.326;2023-07-20T03:04:30;100624.34;;;17.58;87.35
15750;BME280;7976;52.526;13.326;2023-07-20T03:06:57;100620.06;;;17.56;87.26
15750;BME280;7976;52.526;13.326;2023-07-20T03:09:25;100623.88;;;17.51;87.12
15750;BME280;7976;52.526;13.326;2023-07-20T03:11:52;100631.81;;;17.51;87.50
15750;BME280;7976;52.526;13.326;2023-07-20T03:14:19;100631.81;;;17.51;87.63
15750;BME280;7976;52.526;13.326;2023-07-20T03:16:47;100628.75;;;17.58;87.88
15750;BME280;7976;52.526;13.326;2023-07-20T03:19:14;100631.31;;;17.59;87.40
15750;BME280;7976;52.526;13.326;2023-07-20T03:21:42;100623.38;;;17.59;87.32
15750;BME280;7976;52.526;13.326;2023-07-20T03:24:09;100623.25;;;17.61;87.16
15750;BME280;7976;52.526;13.326;2023-07-20T03:26:36;100618.28;;;17.56;87.00
15750;BME280;7976;52.526;13.326;2023-07-20T03:29:05;100618.50;;;17.53;87.73
15750;BME280;7976;52.526;13.326;2023-07-20T03:31:33;100620.94;;;17.56;87.47
15750;BME280;7976;52.526;13.326;2023-07-20T03:34:01;100637.34;;;17.61;87.38
15750;BME280;7976;52.526;13.326;2023-07-20T03:36:27;100638.19;;;17.62;87.20
15750;BME280;7976;52.526;13.326;2023-07-20T03:38:54;100645.50;;;17.58;87.31
15750;BME280;7976;52.526;13.326;2023-07-20T03:41:21;100637.75;;;17.55;87.44
15750;BME280;7976;52.526;13.326;2023-07-20T03:43:48;100638.81;;;17.52;87.23
15750;BME280;7976;52.526;13.326;2023-07-20T03:46:16;100641.47;;;17.52;87.12
15750;BME280;7976;52.526;13.326;2023-07-20T03:48:43;100644.09;;;17.52;87.55
15750;BME280;7976;52.526;13.326;2023-07-20T03:51:11;100645.78;;;17.53;87.10
15750;BME280;7976;52.526;13.326;2023-07-20T03:53:38;100642.59;;;17.48;86.94
15750;BME280;7976;52.526;13.326;2023-07-20T03:56:05;100641.28;;;17.41;87.21
15750;BME280;7976;52.526;13.326;2023-07-20T03:58:32;100640.75;;;17.36;87.27
15750;BME280;7976;52.526;13.326;2023-07-20T04:00:58;100651.03;;;17.41;87.55
15750;BME280;7976;52.526;13.326;2023-07-20T04:03:25;100652.50;;;17.45;87.23
15750;BME280;7976;52.526;13.326;2023-07-20T04:05:54;100656.97;;;17.44;87.57
15750;BME280;7976;52.526;13.326;2023-07-20T04:08:23;100658.28;;;17.51;87.47
15750;BME280;7976;52.526;13.326;2023-07-20T04:10:50;100649.19;;;17.56;87.19
15750;BME280;7976;52.526;13.326;2023-07-20T04:13:17;100652.38;;;17.61;87.03
15750;BME280;7976;52.526;13.326;2023-07-20T04:15:44;100655.56;;;17.66;87.07
15750;BME280;7976;52.526;13.326;2023-07-20T04:18:11;100653.66;;;17.68;86.71
15750;BME280;7976;52.526;13.326;2023-07-20T04:20:38;100652.16;;;17.64;86.71
15750;BME280;7976;52.526;13.326;2023-07-20T04:23:05;100658.63;;;17.60;86.50
15750;BME280;7976;52.526;13.326;2023-07-20T04:25:34;100661.47;;;17.57;86.89
15750;BME280;7976;52.526;13.326;2023-07-20T04:28:05;100658.09;;;17.55;86.79
15750;BME280;7976;52.526;13.326;2023-07-20T04:30:36;100654.81;;;17.51;87.27
15750;BME280;7976;52.526;13.326;2023-07-20T04:33:04;100655.72;;;17.50;87.01
15750;BME280;7976;52.526;13.326;2023-07-20T04:35:49;100655.56;;;17.53;86.89
15750;BME280;7976;52.526;13.326;2023-07-20T04:38:23;100655.63;;;17.51;86.93
15750;BME280;7976;52.526;13.326;2023-07-20T04:41:01;100663.56;;;17.51;86.64
15750;BME280;7976;52.526;13.326;2023-07-20T04:43:32;100662.75;;;17.51;86.82
15750;BME280;7976;52.526;13.326;2023-07-20T04:45:58;100665.06;;;17.56;86.65
15750;BME280;7976;52.526;13.326;2023-07-20T04:48:26;100663.50;;;17.53;86.87
15750;BME280;7976;52.526;13.326;2023-07-20T04:50:56;100663.38;;;17.55;86.75
15750;BME280;7976;52.526;13.326;2023-07-20T04:53:24;100663.19;;;17.58;86.72
15750;BME280;7976;52.526;13.326;2023-07-20T04:55:51;100658.75;;;17.58;86.81
15750;BME280;7976;52.526;13.326;2023-07-20T04:58:22;100662.97;;;17.61;86.84
15750;BME280;7976;52.526;13.326;2023-07-20T05:00:51;100674.31;;;17.63;86.44
15750;BME280;7976;52.526;13.326;2023-07-20T05:03:19;100664.66;;;17.62;86.25
15750;BME280;7976;52.526;13.326;2023-07-20T05:05:49;100669.75;;;17.65;86.21
15750;BME280;7976;52.526;13.326;2023-07-20T05:08:17;100671.13;;;17.70;86.34
15750;BME280;7976;52.526;13.326;2023-07-20T05:10:44;100676.31;;;17.72;85.70
15750;BME280;7976;52.526;13.326;2023-07-20T05:13:11;100683.31;;;17.73;85.59
15750;BME280;7976;52.526;13.326;2023-07-20T05:15:39;100684.25;;;17.72;85.54
15750;BME280;7976;52.526;13.326;2023-07-20T05:18:20;100681.59;;;17.72;85.29
15750;BME280;7976;52.526;13.326;2023-07-20T05:20:48;100676.31;;;17.72;85.54
15750;BME280;7976;52.526;13.326;2023-07-20T05:23:18;100670.19;;;17.71;85.47
15750;BME280;7976;52.526;13.326;2023-07-20T05:25:46;100672.19;;;17.68;85.27
15750;BME280;7976;52.526;13.326;2023-07-20T05:28:13;100671.66;;;17.63;85.61
15750;BME280;7976;52.526;13.326;2023-07-20T05:30:41;100670.69;;;17.64;85.66
15750;BME280;7976;52.526;13.326;2023-07-20T05:33:08;100681.06;;;17.67;85.49
15750;BME280;7976;52.526;13.326;2023-07-20T05:35:46;100676.97;;;17.75;85.76
15750;BME280;7976;52.526;13.326;2023-07-20T05:38:14;100679.63;;;17.88;85.80
15750;BME280;7976;52.526;13.326;2023-07-20T05:40:49;100684.22;;;17.98;85.32
15750;BME280;7976;52.526;13.326;2023-07-20T05:43:16;100685.44;;;18.05;85.19
15750;BME280;7976;52.526;13.326;2023-07-20T05:45:45;100678.91;;;18.11;85.13
15750;BME280;7976;52.526;13.326;2023-07-20T05:48:19;100688.44;;;18.13;84.57
15750;BME280;7976;52.526;13.326;2023-07-20T05:50:50;100687.16;;;18.19;84.60
15750;BME280;7976;52.526;13.326;2023-07-20T05:53:17;100686.75;;;18.25;84.45
15750;BME280;7976;52.526;13.326;2023-07-20T05:55:51;100690.97;;;18.27;83.86
15750;BME280;7976;52.526;13.326;2023-07-20T05:58:19;100691.31;;;18.23;83.75
15750;BME280;7976;52.526;13.326;2023-07-20T06:00:49;100694.16;;;18.20;83.51
15750;BME280;7976;52.526;13.326;2023-07-20T06:03:16;100696.28;;;18.15;83.54
15750;BME280;7976;52.526;13.326;2023-07-20T06:05:46;100702.00;;;18.09;83.78
15750;BME280;7976;52.526;13.326;2023-07-20T06:08:13;100701.81;;;18.12;83.93
15750;BME280;7976;52.526;13.326;2023-07-20T06:10:39;100699.03;;;18.13;83.80
15750;BME280;7976;52.526;13.326;2023-07-20T06:13:07;100703.28;;;18.16;83.66
15750;BME280;7976;52.526;13.326;2023-07-20T06:15:43;100702.13;;;18.20;83.21
15750;BME280;7976;52.526;13.326;2023-07-20T06:18:18;100709.00;;;18.22;82.76
15750;BME280;7976;52.526;13.326;2023-07-20T06:20:49;100707.09;;;18.37;82.88
15750;BME280;7976;52.526;13.326;2023-07-20T06:23:17;100714.00;;;18.52;82.32
15750;BME280;7976;52.526;13.326;2023-07-20T06:25:44;100715.06;;;18.62;81.67
15750;BME280;7976;52.526;13.326;2023-07-20T06:28:11;100718.53;;;18.62;81.31
15750;BME280;7976;52.526;13.326;2023-07-20T06:30:38;100716.63;;;18.64;81.00
15750;BME280;7976;52.526;13.326;2023-07-20T06:33:05;100722.78;;;18.65;80.73
15750;BME280;7976;52.526;13.326;2023-07-20T06:35:34;100714.84;;;18.65;80.60
15750;BME280;7976;52.526;13.326;2023-07-20T06:38:01;100715.13;;;18.60;80.33
15750;BME280;7976;52.526;13.326;2023-07-20T06:40:29;100718.53;;;18.62;80.15
15750;BME280;7976;52.526;13.326;2023-07-20T06:42:56;100722.03;;;18.63;79.68
15750;BME280;7976;52.526;13.326;2023-07-20T06:45:24;100716.00;;;18.61;79.01
15750;BME280;7976;52.526;13.326;2023-07-20T06:47:51;100714.44;;;18.58;79.01
15750;BME280;7976;52.526;13.326;2023-07-20T06:50:17;100716.31;;;18.56;78.97
15750;BME280;7976;52.526;13.326;2023-07-20T06:52:46;100717.25;;;18.55;78.84
15750;BME280;7976;52.526;13.326;2023-07-20T06:55:13;100727.78;;;18.57;78.65
15750;BME280;7976;52.526;13.326;2023-07-20T06:57:41;100730.75;;;18.65;78.24
15750;BME280;7976;52.526;13.326;2023-07-20T07:00:09;100727.41;;;18.74;77.76
15750;BME280;7976;52.526;13.326;2023-07-20T07:02:36;100726.78;;;18.83;77.08
15750;BME280;7976;52.526;13.326;2023-07-20T07:05:04;100722.41;;;18.95;76.41
15750;BME280;7976;52.526;13.326;2023-07-20T07:07:32;100712.47;;;19.09;75.92
15750;BME280;7976;52.526;13.326;2023-07-20T07:10:01;100712.22;;;19.25;75.73
15750;BME280;7976;52.526;13.326;2023-07-20T07:12:30;100711.78;;;19.31;74.99
15750;BME280;7976;52.526;13.326;2023-07-20T07:14:57;100715.50;;;19.28;74.58
15750;BME280;7976;52.526;13.326;2023-07-20T07:17:23;100723.72;;;19.13;74.33
15750;BME280;7976;52.526;13.326;2023-07-20T07:19:52;100728.63;;;19.06;74.26
15750;BME280;7976;52.526;13.326;2023-07-20T07:22:20;100736.66;;;19.17;73.62
15750;BME280;7976;52.526;13.326;2023-07-20T07:24:47;100727.69;;;19.31;72.87
15750;BME280;7976;52.526;13.326;2023-07-20T07:27:15;100726.91;;;19.41;72.52
15750;BME280;7976;52.526;13.326;2023-07-20T07:29:42;100724.53;;;19.49;72.20
15750;BME280;7976;52.526;13.326;2023-07-20T07:32:10;100727.38;;;19.59;71.77
15750;BME280;7976;52.526;13.326;2023-07-20T07:34:37;100714.00;;;19.71;71.17
15750;BME280;7976;52.526;13.326;2023-07-20T07:37:04;100717.91;;;19.78;70.94
15750;BME280;7976;52.526;13.326;2023-07-20T07:39:31;100718.41;;;19.83;70.65
15750;BME280;7976;52.526;13.326;2023-07-20T07:41:58;100722.75;;;19.84;70.74
15750;BME280;7976;52.526;13.326;2023-07-20T07:44:26;100717.78;;;19.80;70.36
15750;BME280;7976;52.526;13.326;2023-07-20T07:46:53;100717.91;;;19.78;70.21
15750;BME280;7976;52.526;13.326;2023-07-20T07:49:20;100721.19;;;19.82;69.51
15750;BME280;7976;52.526;13.326;2023-07-20T07:51:46;100727.84;;;19.87;68.95
15750;BME280;7976;52.526;13.326;2023-07-20T07:54:14;100725.22;;;19.98;68.47
15750;BME280;7976;52.526;13.326;2023-07-20T07:56:41;100732.25;;;20.11;67.60
15750;BME280;7976;52.526;13.326;2023-07-20T07:59:08;100732.00;;;20.14;66.67
15750;BME280;7976;52.526;13.326;2023-07-20T08:01:36;100731.81;;;20.17;65.88
15750;BME280;7976;52.526;13.326;2023-07-20T08:04:03;100724.56;;;20.19;65.73
15750;BME280;7976;52.526;13.326;2023-07-20T08:06:30;100727.72;;;20.24;66.00
15750;BME280;7976;52.526;13.326;2023-07-20T08:08:58;100727.47;;;20.27;65.95
15750;BME280;7976;52.526;13.326;2023-07-20T08:11:24;100729.75;;;20.20;65.92
15750;BME280;7976;52.526;13.326;2023-07-20T08:13:51;100741.28;;;20.08;66.01
15750;BME280;7976;52.526;13.326;2023-07-20T08:16:18;100735.00;;;19.98;66.47
15750;BME280;7976;52.526;13.326;2023-07-20T08:18:46;100740.91;;;20.02;66.60
15750;BME280;7976;52.526;13.326;2023-07-20T08:21:13;100749.50;;;20.05;66.43
15750;BME280;7976;52.526;13.326;2023-07-20T08:23:40;100744.56;;;20.12;66.11
15750;BME280;7976;52.526;13.326;2023-07-20T08:26:07;100754.25;;;20.13;65.43
15750;BME280;7976;52.526;13.326;2023-07-20T08:28:34;100751.94;;;20.08;65.32
15750;BME280;7976;52.526;13.326;2023-07-20T08:31:01;100756.41;;;20.08;65.36
15750;BME280;7976;52.526;13.326;2023-07-20T08:33:28;100758.84;;;20.11;65.80
15750;BME280;7976;52.526;13.326;2023-07-20T08:36:00;100757.63;;;20.15;65.83
15750;BME280;7976;52.526;13.326;2023-07-20T08:38:29;100751.88;;;20.21;65.07
15750;BME280;7976;52.526;13.326;2023-07-20T08:40:56;100738.59;;;20.21;64.47
15750;BME280;7976;52.526;13.326;2023-07-20T08:43:28;100751.66;;;20.24;64.00
15750;BME280;7976;52.526;13.326;2023-07-20T08:45:55;100752.00;;;20.19;64.34
15750;BME280;7976;52.526;13.326;2023-07-20T08:48:24;100750.28;;;20.18;63.94
15750;BME280;7976;52.526;13.326;2023-07-20T08:50:52;100750.66;;;20.25;63.84
15750;BME280;7976;52.526;13.326;2023-07-20T08:53:21;100752.88;;;20.42;63.64
15750;BME280;7976;52.526;13.326;2023-07-20T08:55:51;100747.34;;;20.56;62.73
15750;BME280;7976;52.526;13.326;2023-07-20T08:58:18;100749.16;;;20.66;62.38
15750;BME280;7976;52.526;13.326;2023-07-20T09:00:46;100756.53;;;20.74;61.46
15750;BME280;7976;52.526;13.326;2023-07-20T09:03:16;100755.56;;;20.86;60.57
15750;BME280;7976;52.526;13.326;2023-07-20T09:05:44;100741.03;;;20.90;60.42
15750;BME280;7976;52.526;13.326;2023-07-20T09:08:11;100749.41;;;20.96;60.57
15750;BME280;7976;52.526;13.326;2023-07-20T09:10:39;100743.00;;;20.99;60.59
15750;BME280;7976;52.526;13.326;2023-07-20T09:13:06;100744.94;;;21.08;61.14
15750;BME280;7976;52.526;13.326;2023-07-20T09:15:33;100742.50;;;21.16;60.35
15750;BME280;7976;52.526;13.326;2023-07-20T09:18:02;100751.91;;;21.20;60.31
15750;BME280;7976;52.526;13.326;2023-07-20T09:20:32;100735.69;;;21.23;60.38
15750;BME280;7976;52.526;13.326;2023-07-20T09:23:04;100740.56;;;21.18;60.16
15750;BME280;7976;52.526;13.326;2023-07-20T09:25:32;100743.44;;;21.26;60.60
15750;BME280;7976;52.526;13.326;2023-07-20T09:28:03;100735.28;;;21.39;59.35
15750;BME280;7976;52.526;13.326;2023-07-20T09:30:30;100747.97;;;21.46;59.23
15750;BME280;7976;52.526;13.326;2023-07-20T09:32:59;100747.50;;;21.41;59.47
15750;BME280;7976;52.526;13.326;2023-07-20T09:35:26;100752.38;;;21.25;59.65
15750;BME280;7976;52.526;13.326;2023-07-20T09:37:59;100752.91;;;21.08;59.78
15750;BME280;7976;52.526;13.326;2023-07-20T09:40:27;100754.72;;;20.85;59.79
15750;BME280;7976;52.526;13.326;2023-07-20T09:42:54;100757.59;;;20.60;60.23
15750;BME280;7976;52.526;13.326;2023-07-20T09:45:30;100762.56;;;20.43;60.47
15750;BME280;7976;52.526;13.326;2023-07-20T09:48:04;100767.47;;;20.25;60.46
15750;BME280;7976;52.526;13.326;2023-07-20T09:50:32;100762.56;;;20.08;61.24
15750;BME280;7976;52.526;13.326;2023-07-20T09:53:01;100774.97;;;19.96;62.35
15750;BME280;7976;52.526;13.326;2023-07-20T09:55:29;100775.75;;;19.86;63.09
15750;BME280;7976;52.526;13.326;2023-07-20T09:57:56;100786.88;;;19.80;63.68
15750;BME280;7976;52.526;13.326;2023-07-20T10:00:23;100783.06;;;19.71;64.87
15750;BME280;7976;52.526;13.326;2023-07-20T10:02:53;100777.25;;;19.66;65.61
15750;BME280;7976;52.526;13.326;2023-07-20T10:05:24;100779.19;;;19.64;65.80
15750;BME280;7976;52.526;13.326;2023-07-20T10:07:54;100790.53;;;19.66;66.11
15750;BME280;7976;52.526;13.326;2023-07-20T10:10:22;100789.78;;;19.64;66.56
15750;BME280;7976;52.526;13.326;2023-07-20T10:12:50;100783.03;;;19.60;66.88
15750;BME280;7976;52.526;13.326;2023-07-20T10:15:22;100782.81;;;19.63;66.63
15750;BME280;7976;52.526;13.326;2023-07-20T10:18:07;100783.19;;;19.70;66.59
15750;BME280;7976;52.526;13.326;2023-07-20T10:20:39;100784.69;;;19.74;66.32
15750;BME280;7976;52.526;13.326;2023-07-20T10:23:07;100782.03;;;19.74;66.15
15750;BME280;7976;52.526;13.326;2023-07-20T10:25:35;100785.50;;;19.74;66.48
15750;BME280;7976;52.526;13.326;2023-07-20T10:28:05;100776.34;;;19.78;65.79
15750;BME280;7976;52.526;13.326;2023-07-20T10:30:34;100780.75;;;19.90;65.73
15750;BME280;7976;52.526;13.326;2023-07-20T10:33:04;100784.53;;;19.99;64.74
15750;BME280;7976;52.526;13.326;2023-07-20T10:35:50;100767.88;;;20.08;64.87
15750;BME280;7976;52.526;13.326;2023-07-20T10:38:17;100762.94;;;20.15;64.49
15750;BME280;7976;52.526;13.326;2023-07-20T10:40:56;100775.06;;;20.19;64.96
15750;BME280;7976;52.526;13.326;2023-07-20T10:43:22;100776.22;;;20.15;64.37
15750;BME280;7976;52.526;13.326;2023-07-20T10:45:51;100778.50;;;20.08;64.44
15750;BME280;7976;52.526;13.326;2023-07-20T10:48:22;100773.31;;;20.07;64.45
15750;BME280;7976;52.526;13.326;2023-07-20T10:51:09;100777.56;;;20.09;64.98
15750;BME280;7976;52.526;13.326;2023-07-20T10:53:36;100773.56;;;20.15;64.51
15750;BME280;7976;52.526;13.326;2023-07-20T10:56:09;100770.63;;;20.19;64.18
15750;BME280;7976;52.526;13.326;2023-07-20T10:58:37;100770.13;;;20.25;63.89
15750;BME280;7976;52.526;13.326;2023-07-20T11:01:04;100768.69;;;20.32;63.83
15750;BME280;7976;52.526;13.326;2023-07-20T11:03:36;100775.56;;;20.35;63.66
15750;BME280;7976;52.526;13.326;2023-07-20T11:06:31;100771.72;;;20.50;63.61
15750;BME280;7976;52.526;13.326;2023-07-20T11:09:07;100779.50;;;20.64;63.59
15750;BME280;7976;52.526;13.326;2023-07-20T11:11:38;100772.88;;;20.69;63.29
15750;BME280;7976;52.526;13.326;2023-07-20T11:14:07;100788.94;;;20.68;63.10
15750;BME280;7976;52.526;13.326;2023-07-20T11:16:40;100778.16;;;20.58;63.40
15750;BME280;7976;52.526;13.326;2023-07-20T11:19:17;100769.69;;;20.53;63.34
15750;BME280;7976;52.526;13.326;2023-07-20T11:21:46;100776.09;;;20.51;63.28
15750;BME280;7976;52.526;13.326;2023-07-20T11:24:13;100771.53;;;20.53;63.18
15750;BME280;7976;52.526;13.326;2023-07-20T11:26:44;100774.53;;;20.59;63.12
15750;BME280;7976;52.526;13.326;2023-07-20T11:29:12;100767.53;;;20.80;62.33
15750;BME280;7976;52.526;13.326;2023-07-20T11:31:41;100771.56;;;21.08;61.71
15750;BME280;7976;52.526;13.326;2023-07-20T11:34:11;100770.06;;;21.15;61.64
15750;BME280;7976;52.526;13.326;2023-07-20T11:36:40;100776.00;;;21.18;61.67
15750;BME280;7976;52.526;13.326;2023-07-20T11:39:09;100775.94;;;21.41;61.77
15750;BME280;7976;52.526;13.326;2023-07-20T11:41:36;100767.03;;;21.62;61.58
15750;BME280;7976;52.526;13.326;2023-07-20T11:44:04;100770.06;;;21.80;61.60
15750;BME280;7976;52.526;13.326;2023-07-20T11:46:34;100761.13;;;21.90;61.20
15750;BME280;7976;52.526;13.326;2023-07-20T11:49:01;100759.84;;;22.05;60.47
15750;BME280;7976;52.526;13.326;2023-07-20T11:51:29;100754.28;;;22.08;60.41
15750;BME280;7976;52.526;13.326;2023-07-20T11:53:58;100759.47;;;21.89;59.79
15750;BME280;7976;52.526;13.326;2023-07-20T11:56:26;100765.09;;;21.64;59.96
15750;BME280;7976;52.526;13.326;2023-07-20T11:58:55;100768.81;;;21.41;60.60
15750;BME280;7976;52.526;13.326;2023-07-20T12:01:25;100771.00;;;21.25;59.79
15750;BME280;7976;52.526;13.326;2023-07-20T12:03:55;100774.69;;;21.13;59.60
15750;BME280;7976;52.526;13.326;2023-07-20T12:06:24;100781.94;;;21.00;59.66
15750;BME280;7976;52.526;13.326;2023-07-20T12:08:55;100785.56;;;20.88;59.67
15750;BME280;7976;52.526;13.326;2023-07-20T12:11:36;100778.91;;;20.71;59.93
15750;BME280;7976;52.526;13.326;2023-07-20T12:14:04;100781.31;;;20.63;60.37
15750;BME280;7976;52.526;13.326;2023-07-20T12:16:34;100787.25;;;20.56;60.61
15750;BME280;7976;52.526;13.326;2023-07-20T12:19:03;100788.91;;;20.57;61.15
15750;BME280;7976;52.526;13.326;2023-07-20T12:21:33;100787.47;;;20.64;60.72
15750;BME280;7976;52.526;13.326;2023-07-20T12:24:01;100786.91;;;20.71;60.80
15750;BME280;7976;52.526;13.326;2023-07-20T12:26:30;100779.41;;;20.76;60.88
15750;BME280;7976;52.526;13.326;2023-07-20T12:29:00;100779.41;;;20.76;60.69
15750;BME280;7976;52.526;13.326;2023-07-20T12:31:28;100773.94;;;20.78;60.49
15750;BME280;7976;52.526;13.326;2023-07-20T12:34:00;100773.72;;;20.81;60.05
15750;BME280;7976;52.526;13.326;2023-07-20T12:36:27;100777.72;;;20.86;60.11
15750;BME280;7976;52.526;13.326;2023-07-20T12:38:54;100778.44;;;21.10;59.74
15750;BME280;7976;52.526;13.326;2023-07-20T12:41:21;100780.34;;;21.42;58.77
15750;BME280;7976;52.526;13.326;2023-07-20T12:43:48;100782.56;;;21.57;57.70
15750;BME280;7976;52.526;13.326;2023-07-20T12:46:17;100779.53;;;21.62;57.71
15750;BME280;7976;52.526;13.326;2023-07-20T12:48:44;100772.63;;;21.59;57.49
15750;BME280;7976;52.526;13.326;2023-07-20T12:51:12;100768.75;;;21.63;57.34
15750;BME280;7976;52.526;13.326;2023-07-20T12:53:42;100772.84;;;21.78;57.07
15750;BME280;7976;52.526;13.326;2023-07-20T12:56:09;100776.66;;;21.96;56.27
15750;BME280;7976;52.526;13.326;2023-07-20T12:58:36;100768.06;;;22.13;55.14
15750;BME280;7976;52.526;13.326;2023-07-20T13:01:04;100757.47;;;22.23;53.48